Time;durP1;ratioP1;P1;durP2;ratioP2;P2;SDS_P1;SDS_P2;PMS_P1;PMS_P2;Temp;Humidity;BMP_temperature;BMP_pressure;BME280_temperature;BME280_humidity;BME280_pressure;Samples;Min_cycle;Max_cycle;Signal;HPM_P1;HPM_P2
2021/04/24 00:01:33;;;;;;;12.73;8.13;;;9.00;95.10;;;;;;5051716;28;20451;-50
2021/04/24 00:04:00;;;;;;;14.10;8.30;;;8.90;95.30;;;;;;5040282;28;20459;-49
2021/04/24 00:06:29;;;;;;;12.20;7.00;;;9.00;95.20;;;;;;5061765;28;20454;-50
2021/04/24 00:08:56;;;;;;;9.43;6.43;;;9.10;95.40;;;;;;5051502;28;20462;-50
2021/04/24 00:11:24;;;;;;;11.60;6.10;;;9.00;95.40;;;;;;5051577;28;20504;-50
2021/04/24 00:13:51;;;;;;;8.70;6.10;;;9.00;95.50;;;;;;5051375;28;20875;-50
2021/04/24 00:16:17;;;;;;;9.40;5.80;;;9.00;95.20;;;;;;5067141;28;20498;-49
2021/04/24 00:18:44;;;;;;;13.13;6.13;;;8.90;95.50;;;;;;5071173;28;20457;-50
2021/04/24 00:21:11;;;;;;;9.97;6.10;;;8.80;95.70;;;;;;5051369;28;20460;-51
2021/04/24 00:23:39;;;;;;;8.10;5.37;;;8.90;95.50;;;;;;5050996;28;20479;-50
2021/04/24 00:26:05;;;;;;;11.53;6.60;;;8.90;95.40;;;;;;5065399;28;20496;-51
2021/04/24 00:28:32;;;;;;;8.03;5.50;;;8.90;95.50;;;;;;5071214;28;20456;-49
2021/04/24 00:30:59;;;;;;;9.80;6.03;;;8.80;95.80;;;;;;5071362;28;20492;-49
2021/04/24 00:33:26;;;;;;;8.93;5.60;;;8.80;95.80;;;;;;5071290;28;20453;-51
2021/04/24 00:35:52;;;;;;;10.03;6.30;;;8.90;95.80;;;;;;5059411;28;20455;-49
2021/04/24 00:38:19;;;;;;;10.30;5.83;;;8.80;96.20;;;;;;5050758;28;20504;-50
2021/04/24 00:40:47;;;;;;;14.50;6.10;;;8.50;96.40;;;;;;5051498;28;20484;-50
2021/04/24 00:43:14;;;;;;;15.13;6.37;;;8.50;96.50;;;;;;5051396;28;20492;-50
2021/04/24 00:45:41;;;;;;;10.00;5.67;;;8.50;96.40;;;;;;5061254;28;20512;-49
2021/04/24 00:48:08;;;;;;;11.53;5.90;;;8.60;96.20;;;;;;5071073;28;21006;-49
2021/04/24 00:50:36;;;;;;;11.50;5.70;;;8.70;96.10;;;;;;5071265;28;20846;-50
2021/04/24 00:53:04;;;;;;;8.23;5.50;;;8.70;96.40;;;;;;5061424;28;20452;-49
2021/04/24 00:55:31;;;;;;;10.37;5.60;;;8.70;96.70;;;;;;5050484;28;20575;-49
2021/04/24 00:57:59;;;;;;;10.70;6.27;;;8.50;96.50;;;;;;5058094;28;20449;-50
2021/04/24 01:00:26;;;;;;;7.70;4.73;;;8.50;96.70;;;;;;5057571;28;20470;-51
2021/04/24 01:02:54;;;;;;;9.37;5.50;;;8.50;96.70;;;;;;5055150;28;20564;-49
2021/04/24 01:05:22;;;;;;;11.30;5.97;;;8.30;96.80;;;;;;5061358;28;20504;-50
2021/04/24 01:07:49;;;;;;;10.83;6.40;;;8.30;97.00;;;;;;5053941;28;20461;-49
2021/04/24 01:10:19;;;;;;;8.83;5.97;;;8.50;97.00;;;;;;5054718;28;20467;-49
2021/04/24 01:12:47;;;;;;;9.17;5.80;;;8.40;97.20;;;;;;5055191;28;20958;-50
2021/04/24 01:15:17;;;;;;;9.47;5.60;;;8.30;96.90;;;;;;5059951;28;20445;-49
2021/04/24 01:17:44;;;;;;;9.00;5.90;;;8.40;96.80;;;;;;5074633;28;20451;-49
2021/04/24 01:20:13;;;;;;;10.40;5.83;;;8.30;97.20;;;;;;5075116;28;20476;-49
2021/04/24 01:22:42;;;;;;;10.10;5.97;;;8.40;97.50;;;;;;5074932;28;20480;-50
2021/04/24 01:25:12;;;;;;;11.70;5.70;;;8.20;97.90;;;;;;5069811;28;20962;-49
2021/04/24 01:27:42;;;;;;;9.87;5.90;;;8.00;98.20;;;;;;5054852;28;20509;-49
2021/04/24 01:30:11;;;;;;;8.47;5.83;;;7.90;98.70;;;;;;5054245;28;20540;-49
2021/04/24 01:32:43;;;;;;;8.23;5.30;;;8.00;98.70;;;;;;5051800;28;20460;-50
2021/04/24 01:35:12;;;;;;;13.00;6.50;;;8.00;98.70;;;;;;5054731;28;20448;-49
2021/04/24 01:37:44;;;;;;;11.57;6.03;;;7.80;99.10;;;;;;5054391;28;20836;-50
2021/04/24 01:40:13;;;;;;;11.30;5.40;;;7.70;99.70;;;;;;5054197;28;20937;-49
2021/04/24 01:42:42;;;;;;;13.03;6.50;;;7.70;99.70;;;;;;5053985;28;20492;-50
2021/04/24 01:45:11;;;;;;;8.73;5.90;;;7.80;99.80;;;;;;5054108;28;20456;-49
2021/04/24 01:47:42;;;;;;;10.33;6.70;;;7.80;99.80;;;;;;5054377;28;20471;-51
2021/04/24 01:50:09;;;;;;;11.17;6.37;;;7.50;99.90;;;;;;5054224;28;20470;-49
2021/04/24 01:52:37;;;;;;;12.73;6.10;;;7.60;99.90;;;;;;5053880;28;20443;-50
2021/04/24 01:55:06;;;;;;;13.37;6.90;;;7.60;99.90;;;;;;5053837;28;20501;-49
2021/04/24 01:57:32;;;;;;;12.93;8.00;;;7.60;99.90;;;;;;5053704;28;20487;-50
2021/04/24 01:59:59;;;;;;;14.47;7.23;;;7.70;99.90;;;;;;5054063;28;20527;-49
2021/04/24 02:02:26;;;;;;;18.73;8.23;;;7.70;99.90;;;;;;5054092;28;20890;-49
2021/04/24 02:04:52;;;;;;;13.10;7.17;;;7.70;99.90;;;;;;5053020;28;20992;-49
2021/04/24 02:07:19;;;;;;;13.63;7.40;;;7.60;99.90;;;;;;5053459;28;20458;-48
2021/04/24 02:09:45;;;;;;;13.73;6.93;;;7.50;99.90;;;;;;5051486;28;20475;-49
2021/04/24 02:12:14;;;;;;;14.17;6.83;;;7.40;99.90;;;;;;5054110;28;20439;-49
2021/04/24 02:14:43;;;;;;;11.80;6.50;;;7.40;99.90;;;;;;5053676;28;20894;-49
2021/04/24 02:17:11;;;;;;;9.43;5.87;;;7.40;99.90;;;;;;5053571;28;20483;-49
2021/04/24 02:19:40;;;;;;;10.97;5.83;;;7.50;99.90;;;;;;5052632;28;20522;-49
2021/04/24 02:22:07;;;;;;;9.47;6.40;;;7.50;99.90;;;;;;5053542;28;21235;-50
2021/04/24 02:24:42;;;;;;;7.97;5.80;;;7.40;99.90;;;;;;5053860;28;20480;-49
2021/04/24 02:27:10;;;;;;;10.20;6.30;;;7.50;99.90;;;;;;5053239;28;20540;-49
2021/04/24 02:29:38;;;;;;;9.90;6.40;;;7.30;99.90;;;;;;5053101;28;20480;-49
2021/04/24 02:32:06;;;;;;;10.10;6.10;;;7.10;99.90;;;;;;5053315;28;20455;-49
2021/04/24 02:34:33;;;;;;;8.80;5.70;;;7.20;99.90;;;;;;5053314;28;20455;-49
2021/04/24 02:37:00;;;;;;;12.53;7.20;;;7.10;99.90;;;;;;5053519;28;20456;-50
2021/04/24 02:39:32;;;;;;;13.57;7.33;;;7.10;99.90;;;;;;5053175;28;20474;-48
2021/04/24 02:42:00;;;;;;;12.67;7.37;;;7.20;99.90;;;;;;5053261;28;20448;-50
2021/04/24 02:44:28;;;;;;;11.73;6.23;;;7.10;99.90;;;;;;5052991;28;21001;-49
2021/04/24 02:46:58;;;;;;;10.97;6.40;;;7.20;99.90;;;;;;5053245;28;20454;-49
2021/04/24 02:49:25;;;;;;;13.53;6.70;;;7.20;99.90;;;;;;5052625;28;20509;-49
2021/04/24 02:51:52;;;;;;;9.60;5.90;;;7.20;99.90;;;;;;5053382;28;20821;-49
2021/04/24 02:54:19;;;;;;;10.07;6.27;;;7.10;99.90;;;;;;5052793;28;20448;-49
2021/04/24 02:56:45;;;;;;;8.03;5.33;;;7.10;99.90;;;;;;5052915;28;20451;-49
2021/04/24 02:59:12;;;;;;;10.23;6.07;;;7.10;99.90;;;;;;5052324;28;20471;-48
2021/04/24 03:01:38;;;;;;;7.60;5.40;;;7.10;99.90;;;;;;5049933;28;20460;-49
2021/04/24 03:04:07;;;;;;;10.57;5.90;;;7.10;99.90;;;;;;5053241;28;20490;-49
2021/04/24 03:06:33;;;;;;;10.70;6.37;;;7.10;99.90;;;;;;5052922;28;20464;-49
2021/04/24 03:09:01;;;;;;;9.30;5.80;;;6.80;99.90;;;;;;5052581;28;20467;-48
2021/04/24 03:11:28;;;;;;;11.03;6.33;;;6.50;99.90;;;;;;5058785;28;20455;-49
2021/04/24 03:13:55;;;;;;;10.83;6.43;;;6.50;99.90;;;;;;5070374;28;20451;-49
2021/04/24 03:16:21;;;;;;;10.17;6.10;;;6.50;99.90;;;;;;5052959;28;20444;-49
2021/04/24 03:18:48;;;;;;;10.77;6.70;;;6.60;99.90;;;;;;5052761;28;20456;-49
2021/04/24 03:21:15;;;;;;;11.40;6.10;;;6.60;99.90;;;;;;5051385;28;20497;-49
2021/04/24 03:23:42;;;;;;;9.13;6.23;;;6.70;99.90;;;;;;5052378;28;20486;-49
2021/04/24 03:26:08;;;;;;;12.77;8.70;;;6.70;99.90;;;;;;5072322;28;20474;-49
2021/04/24 03:28:35;;;;;;;10.00;6.13;;;6.80;99.90;;;;;;5072328;28;20451;-48
2021/04/24 03:31:01;;;;;;;11.13;6.00;;;6.80;99.90;;;;;;5070266;28;20479;-49
2021/04/24 03:33:28;;;;;;;8.93;6.00;;;6.80;99.90;;;;;;5038117;28;20468;-47
2021/04/24 03:35:54;;;;;;;10.53;6.60;;;6.80;99.90;;;;;;5057475;28;20496;-49
2021/04/24 03:38:22;;;;;;;10.27;6.53;;;6.80;99.90;;;;;;5061519;28;20883;-49
2021/04/24 03:40:48;;;;;;;8.40;5.23;;;6.80;99.90;;;;;;5043469;28;21018;-49
2021/04/24 03:43:15;;;;;;;9.23;5.90;;;6.70;99.90;;;;;;5052724;28;20472;-49
2021/04/24 03:45:41;;;;;;;9.80;5.93;;;6.80;99.90;;;;;;5052404;28;20455;-48
2021/04/24 03:48:08;;;;;;;9.70;6.40;;;6.70;99.90;;;;;;5052291;28;20450;-49
2021/04/24 03:50:34;;;;;;;10.43;6.70;;;6.40;99.90;;;;;;5039101;28;20475;-50
2021/04/24 03:53:01;;;;;;;10.80;7.20;;;6.30;99.90;;;;;;5046320;28;20447;-49
2021/04/24 03:55:28;;;;;;;10.70;6.37;;;6.40;99.90;;;;;;5052424;28;20823;-50
2021/04/24 03:57:55;;;;;;;9.73;6.30;;;6.50;99.90;;;;;;5052144;28;20451;-49
2021/04/24 04:00:23;;;;;;;13.23;6.83;;;6.50;99.90;;;;;;5052416;28;20901;-48
2021/04/24 04:02:51;;;;;;;12.90;6.80;;;6.10;99.90;;;;;;5052164;28;20850;-48
2021/04/24 04:05:19;;;;;;;12.33;7.50;;;6.00;99.90;;;;;;5049578;28;20456;-49
2021/04/24 04:07:46;;;;;;;12.30;7.20;;;6.20;99.90;;;;;;5051244;28;20456;-49
2021/04/24 04:10:15;;;;;;;11.77;7.27;;;6.10;99.90;;;;;;5051665;28;20463;-49
2021/04/24 04:12:43;;;;;;;10.70;6.70;;;6.20;99.90;;;;;;5063753;28;20452;-49
2021/04/24 04:15:12;;;;;;;12.17;6.80;;;6.30;99.90;;;;;;5071973;28;20844;-49
2021/04/24 04:17:38;;;;;;;13.83;7.23;;;6.30;99.90;;;;;;5056288;28;20444;-49
2021/04/24 04:20:07;;;;;;;12.73;6.83;;;6.20;99.90;;;;;;5051751;28;20480;-49
2021/04/24 04:22:34;;;;;;;11.87;6.77;;;6.00;99.90;;;;;;5052763;28;20487;-48
2021/04/24 04:25:00;;;;;;;11.10;7.13;;;6.10;99.90;;;;;;5071825;28;20827;-49
2021/04/24 04:27:28;;;;;;;17.90;8.10;;;6.10;99.90;;;;;;5071831;28;20461;-48
2021/04/24 04:29:55;;;;;;;12.67;6.97;;;6.00;99.90;;;;;;5054865;28;21021;-49
2021/04/24 04:32:22;;;;;;;11.10;7.00;;;6.00;99.90;;;;;;5059722;28;20819;-49
2021/04/24 04:34:48;;;;;;;12.47;8.00;;;6.10;99.90;;;;;;5071603;28;20447;-49
2021/04/24 04:37:15;;;;;;;13.80;7.50;;;6.10;99.90;;;;;;5071529;28;20806;-49
2021/04/24 04:39:42;;;;;;;13.80;7.50;;;6.30;99.90;;;;;;5071430;28;20523;-49
2021/04/24 04:42:09;;;;;;;12.20;7.03;;;6.50;99.90;;;;;;5065346;28;20460;-49
2021/04/24 04:44:35;;;;;;;10.77;6.70;;;6.80;99.90;;;;;;5051614;28;20452;-48
2021/04/24 04:47:03;;;;;;;11.90;6.73;;;7.00;99.90;;;;;;5051144;28;20458;-48
2021/04/24 04:49:29;;;;;;;12.73;7.30;;;7.10;99.90;;;;;;5051177;28;20471;-48
2021/04/24 04:51:55;;;;;;;12.80;7.70;;;7.40;99.90;;;;;;5051786;28;20873;-49
2021/04/24 04:54:22;;;;;;;14.03;7.80;;;7.50;99.90;;;;;;5051391;28;20451;-49
2021/04/24 04:56:48;;;;;;;13.03;8.40;;;7.50;99.90;;;;;;5050946;28;20451;-49
2021/04/24 04:59:15;;;;;;;12.27;8.00;;;7.30;99.90;;;;;;5051023;28;20467;-49
2021/04/24 05:01:42;;;;;;;12.90;6.90;;;7.10;99.90;;;;;;5052898;28;20813;-49
2021/04/24 05:04:09;;;;;;;11.63;7.20;;;6.90;99.90;;;;;;5071193;28;20536;-49
2021/04/24 05:06:35;;;;;;;15.57;7.70;;;6.70;99.90;;;;;;5071468;28;20446;-49
2021/04/24 05:09:02;;;;;;;11.47;6.90;;;6.50;99.90;;;;;;5054641;28;20478;-49
2021/04/24 05:11:28;;;;;;;11.50;6.60;;;6.50;99.90;;;;;;5050282;28;20455;-48
2021/04/24 05:13:55;;;;;;;11.40;6.47;;;6.70;99.90;;;;;;5031250;28;20462;-49
2021/04/24 05:16:21;;;;;;;13.87;7.13;;;7.30;99.90;;;;;;5048698;28;20452;-49
2021/04/24 05:18:48;;;;;;;11.93;7.30;;;8.10;99.90;;;;;;5050648;28;20451;-50
2021/04/24 05:21:15;;;;;;;10.00;6.67;;;9.40;99.90;;;;;;5051244;28;20501;-50
2021/04/24 05:23:42;;;;;;;10.47;6.00;;;10.70;99.90;;;;;;5036130;28;20530;-49
2021/04/24 05:26:08;;;;;;;16.60;6.13;;;11.80;99.90;;;;;;5031159;28;20453;-49
2021/04/24 05:28:35;;;;;;;9.47;6.13;;;12.80;99.00;;;;;;5036314;28;20455;-51
2021/04/24 05:31:01;;;;;;;9.20;5.90;;;13.60;97.20;;;;;;5099450;22;20869;-53
2021/04/24 05:33:28;;;;;;;9.70;5.50;;;14.30;96.40;;;;;;5078483;28;20824;-54
2021/04/24 05:35:55;;;;;;;7.53;6.00;;;14.80;93.20;;;;;;5071798;28;20454;-53
2021/04/24 05:38:22;;;;;;;8.73;5.90;;;15.30;92.40;;;;;;5070670;28;20459;-54
2021/04/24 05:40:49;;;;;;;9.57;5.70;;;15.80;91.50;;;;;;5072034;28;20471;-53
2021/04/24 05:43:15;;;;;;;12.90;5.60;;;16.20;91.20;;;;;;5058317;28;20483;-52
2021/04/24 05:45:42;;;;;;;6.40;5.07;;;16.40;89.60;;;;;;5057156;28;20451;-50
2021/04/24 05:48:09;;;;;;;9.53;5.87;;;16.60;89.40;;;;;;5056808;28;20451;-54
2021/04/24 05:50:35;;;;;;;8.30;5.40;;;16.40;89.80;;;;;;5056299;28;20471;-53
2021/04/24 05:53:02;;;;;;;9.07;6.13;;;16.80;89.50;;;;;;5055679;28;20497;-54
2021/04/24 05:55:29;;;;;;;8.70;6.27;;;16.90;85.10;;;;;;5054825;28;20451;-54
2021/04/24 05:57:55;;;;;;;9.57;5.53;;;16.40;87.00;;;;;;5056385;28;20456;-53
2021/04/24 06:00:22;;;;;;;5.83;5.30;;;16.80;85.10;;;;;;5058079;28;20834;-53
2021/04/24 06:02:49;;;;;;;8.00;6.07;;;16.80;85.80;;;;;;5066303;28;20475;-54
2021/04/24 06:05:16;;;;;;;7.07;5.80;;;17.00;84.70;;;;;;5061277;28;20885;-54
2021/04/24 06:07:42;;;;;;;10.17;5.70;;;17.30;83.90;;;;;;5073711;28;21150;-53
2021/04/24 06:10:12;;;;;;;5.53;4.93;;;17.70;85.00;;;;;;5057793;28;20464;-54
2021/04/24 06:12:40;;;;;;;6.27;5.33;;;17.60;83.70;;;;;;5054283;28;20448;-53
2021/04/24 06:15:08;;;;;;;9.07;4.90;;;17.70;83.00;;;;;;5055118;28;20480;-53
2021/04/24 06:17:34;;;;;;;7.07;5.00;;;15.40;89.50;;;;;;5065752;28;20463;-53
2021/04/24 06:20:01;;;;;;;8.60;5.03;;;14.50;90.40;;;;;;5062110;28;20463;-53
2021/04/24 06:22:28;;;;;;;8.60;4.83;;;15.30;90.30;;;;;;5063984;28;20461;-54
2021/04/24 06:24:55;;;;;;;9.10;5.20;;;15.30;90.80;;;;;;5061322;28;20455;-53
2021/04/24 06:27:21;;;;;;;5.83;4.83;;;15.80;90.50;;;;;;5054870;28;20468;-53
2021/04/24 06:29:48;;;;;;;9.70;4.97;;;16.10;86.40;;;;;;5058094;28;20533;-54
2021/04/24 06:32:15;;;;;;;8.57;5.33;;;16.40;87.30;;;;;;5057358;28;20969;-54
2021/04/24 06:34:42;;;;;;;9.33;5.90;;;16.80;86.50;;;;;;5055935;28;20452;-54
2021/04/24 06:37:09;;;;;;;10.90;5.57;;;17.00;86.10;;;;;;5064629;28;20461;-54
2021/04/24 06:39:36;;;;;;;8.57;4.83;;;17.70;86.20;;;;;;5054655;28;20502;-54
2021/04/24 06:42:04;;;;;;;7.40;5.57;;;18.30;85.50;;;;;;5058590;28;20832;-54
2021/04/24 06:44:30;;;;;;;6.50;5.07;;;19.10;82.10;;;;;;5069089;28;20483;-54
2021/04/24 06:46:58;;;;;;;10.23;6.20;;;19.00;83.20;;;;;;5061964;28;20949;-55
2021/04/24 06:49:24;;;;;;;6.83;5.30;;;18.70;80.00;;;;;;5066761;28;20843;-54
2021/04/24 06:51:51;;;;;;;6.47;5.47;;;18.60;78.60;;;;;;5073153;28;20454;-54
2021/04/24 06:54:18;;;;;;;10.17;5.90;;;19.10;75.80;;;;;;5053472;28;20474;-54
2021/04/24 06:56:44;;;;;;;6.53;5.40;;;19.70;76.70;;;;;;5053501;28;20519;-54
2021/04/24 06:59:11;;;;;;;9.07;5.70;;;20.00;79.60;;;;;;5052967;28;20927;-55
2021/04/24 07:01:37;;;;;;;7.63;5.53;;;19.60;72.40;;;;;;5057819;28;20509;-54
2021/04/24 07:04:05;;;;;;;7.10;6.40;;;19.70;76.80;;;;;;5057479;28;20530;-55
2021/04/24 07:06:32;;;;;;;6.97;5.73;;;20.10;74.10;;;;;;5052934;28;20482;-54
2021/04/24 07:08:59;;;;;;;8.17;5.70;;;20.40;75.10;;;;;;5053122;28;20459;-55
2021/04/24 07:11:26;;;;;;;8.43;4.97;;;21.20;74.50;;;;;;5065957;28;20478;-55
2021/04/24 07:13:53;;;;;;;7.47;4.60;;;21.50;67.60;;;;;;5053226;28;20447;-55
2021/04/24 07:16:19;;;;;;;5.03;4.60;;;21.70;70.20;;;;;;5053083;28;20859;-54
2021/04/24 07:18:46;;;;;;;5.93;5.43;;;22.10;70.80;;;;;;5052790;28;20452;-54
2021/04/24 07:21:14;;;;;;;7.83;4.50;;;21.60;65.80;;;;;;5065367;28;20467;-55
2021/04/24 07:23:41;;;;;;;5.43;4.67;;;21.70;70.20;;;;;;5053733;28;20475;-54
2021/04/24 07:26:08;;;;;;;6.20;4.50;;;20.80;69.20;;;;;;5052931;28;20455;-54
2021/04/24 07:28:35;;;;;;;6.97;4.43;;;20.20;73.50;;;;;;5052664;28;20452;-54
2021/04/24 07:31:01;;;;;;;5.67;4.50;;;20.80;66.70;;;;;;5056534;28;20483;-55
2021/04/24 07:33:28;;;;;;;5.50;4.50;;;21.20;69.40;;;;;;5053061;28;20440;-54
2021/04/24 07:35:55;;;;;;;11.40;4.73;;;21.10;66.70;;;;;;5053026;28;20459;-55
2021/04/24 07:38:23;;;;;;;8.23;4.60;;;21.40;67.70;;;;;;5052248;28;20452;-55
2021/04/24 07:40:50;;;;;;;5.50;4.67;;;21.40;64.20;;;;;;5060966;28;20621;-55
2021/04/24 07:43:17;;;;;;;5.13;4.40;;;21.70;63.60;;;;;;5054139;28;20490;-54
2021/04/24 07:45:44;;;;;;;6.10;4.60;;;22.40;66.10;;;;;;5053562;28;20447;-55
2021/04/24 07:48:11;;;;;;;5.60;4.20;;;22.40;62.00;;;;;;5052184;28;20962;-55
2021/04/24 07:50:38;;;;;;;5.77;4.53;;;22.80;63.50;;;;;;5053197;28;20472;-55
2021/04/24 07:53:05;;;;;;;5.20;4.20;;;22.80;60.00;;;;;;5060109;28;20451;-55
2021/04/24 07:55:32;;;;;;;5.07;4.10;;;23.30;61.30;;;;;;5059694;28;20448;-55
2021/04/24 07:57:59;;;;;;;7.00;4.53;;;22.80;65.70;;;;;;5052260;28;20448;-55
2021/04/24 08:00:26;;;;;;;5.07;4.53;;;22.90;64.60;;;;;;5071446;28;20467;-54
2021/04/24 08:02:53;;;;;;;4.83;4.20;;;23.00;62.00;;;;;;5071995;28;20478;-55
2021/04/24 08:05:20;;;;;;;5.17;4.30;;;22.60;57.80;;;;;;5072118;28;20545;-55
2021/04/24 08:07:47;;;;;;;7.50;5.00;;;22.90;64.80;;;;;;5053762;28;20460;-56
2021/04/24 08:10:14;;;;;;;7.17;5.20;;;22.60;60.10;;;;;;5052188;28;20471;-55
2021/04/24 08:12:46;;;;;;;5.60;4.63;;;22.50;62.80;;;;;;5052202;28;20440;-55
2021/04/24 08:15:14;;;;;;;8.23;5.17;;;22.70;62.40;;;;;;5052001;28;20448;-56
2021/04/24 08:17:41;;;;;;;5.93;5.13;;;22.50;66.40;;;;;;5051770;28;20455;-55
2021/04/24 08:20:09;;;;;;;8.53;5.60;;;20.20;74.20;;;;;;5051703;28;20483;-55
2021/04/24 08:22:36;;;;;;;11.67;5.77;;;19.20;75.90;;;;;;5052950;28;20523;-54
2021/04/24 08:25:03;;;;;;;7.93;6.50;;;19.00;76.00;;;;;;5067442;28;20446;-54
2021/04/24 08:27:29;;;;;;;9.50;6.40;;;18.30;77.80;;;;;;5051936;28;20522;-54
2021/04/24 08:29:57;;;;;;;9.10;6.57;;;18.40;79.00;;;;;;5061360;28;20835;-53
2021/04/24 08:32:24;;;;;;;8.50;6.20;;;17.50;81.80;;;;;;5060929;28;20448;-53
2021/04/24 08:34:50;;;;;;;10.30;6.07;;;17.30;81.30;;;;;;5056523;28;20447;-54
2021/04/24 08:37:17;;;;;;;10.93;6.80;;;18.80;79.30;;;;;;5068627;28;20841;-54
2021/04/24 08:39:44;;;;;;;12.47;7.03;;;19.50;79.40;;;;;;5057917;28;20992;-53
2021/04/24 08:42:10;;;;;;;11.57;7.50;;;20.00;79.10;;;;;;5053176;28;20454;-53
2021/04/24 08:44:37;;;;;;;8.63;6.37;;;18.90;81.50;;;;;;5052408;28;20876;-54
2021/04/24 08:47:06;;;;;;;12.47;6.80;;;19.10;81.10;;;;;;5057728;28;20944;-54
2021/04/24 08:49:33;;;;;;;12.53;7.40;;;20.00;78.60;;;;;;5053026;28;20475;-54
2021/04/24 08:52:03;;;;;;;12.40;7.57;;;19.60;79.80;;;;;;5053837;28;20450;-55
2021/04/24 08:54:30;;;;;;;8.80;7.23;;;19.50;78.70;;;;;;5064386;28;20465;-54
2021/04/24 08:56:57;;;;;;;11.20;6.53;;;19.80;76.90;;;;;;5056550;28;20451;-55
2021/04/24 08:59:23;;;;;;;9.87;7.40;;;19.70;81.10;;;;;;5057456;28;20475;-54
2021/04/24 09:01:50;;;;;;;9.17;7.20;;;19.30;81.20;;;;;;5069529;28;20466;-54
2021/04/24 09:04:18;;;;;;;9.63;6.60;;;19.10;81.90;;;;;;5055824;28;20483;-55
2021/04/24 09:06:45;;;;;;;9.00;6.77;;;19.90;79.50;;;;;;5058237;28;20534;-55
2021/04/24 09:09:13;;;;;;;11.87;7.37;;;20.00;77.20;;;;;;5064276;28;20446;-54
2021/04/24 09:11:41;;;;;;;12.60;6.73;;;19.40;77.90;;;;;;5062648;28;20451;-54
2021/04/24 09:14:10;;;;;;;11.33;7.20;;;18.90;76.90;;;;;;5062017;28;20505;-52
2021/04/24 09:16:38;;;;;;;9.77;6.57;;;19.00;78.00;;;;;;5066670;28;20455;-52
2021/04/24 09:19:26;;;;;;;11.00;7.97;;;18.80;79.60;;;;;;5061875;28;20538;-53
2021/04/24 09:22:14;;;;;;;9.70;6.93;;;19.10;78.20;;;;;;5061073;28;20451;-53
2021/04/24 09:24:42;;;;;;;8.37;6.10;;;20.10;79.50;;;;;;5069249;28;21004;-53
2021/04/24 09:27:09;;;;;;;10.50;6.30;;;20.40;74.70;;;;;;5069968;28;20462;-55
2021/04/24 09:29:36;;;;;;;9.10;6.37;;;19.40;75.80;;;;;;5064477;28;20487;-54
2021/04/24 09:32:16;;;;;;;9.10;6.40;;;19.50;75.30;;;;;;5064431;28;20463;-53
2021/04/24 09:34:46;;;;;;;7.63;6.00;;;19.90;79.00;;;;;;5065500;28;20465;-53
2021/04/24 09:37:17;;;;;;;8.20;5.53;;;19.90;72.50;;;;;;5070777;28;20466;-52
2021/04/24 09:39:51;;;;;;;13.00;7.40;;;20.00;68.80;;;;;;5065667;28;20477;-53
2021/04/24 09:42:34;;;;;;;10.60;6.50;;;19.90;74.40;;;;;;5063374;28;20466;-53
2021/04/24 09:45:02;;;;;;;10.17;6.70;;;19.70;74.10;;;;;;5064566;28;20468;-53
2021/04/24 09:47:44;;;;;;;15.30;6.57;;;19.50;74.40;;;;;;5071244;28;20450;-53
2021/04/24 09:50:14;;;;;;;9.80;6.90;;;20.30;74.80;;;;;;5059855;28;20479;-53
2021/04/24 09:52:43;;;;;;;9.17;6.40;;;20.30;71.50;;;;;;5062590;28;20443;-54
2021/04/24 09:55:15;;;;;;;8.13;6.60;;;20.90;70.20;;;;;;5065614;28;20467;-54
2021/04/24 09:57:44;;;;;;;12.57;7.50;;;21.60;67.90;;;;;;5067005;28;20891;-54
2021/04/24 10:00:16;;;;;;;10.10;6.73;;;22.10;68.60;;;;;;5068810;28;21031;-53
2021/04/24 10:02:46;;;;;;;12.27;6.80;;;20.20;74.70;;;;;;5062485;28;20474;-54
2021/04/24 10:05:16;;;;;;;9.43;6.77;;;20.10;70.20;;;;;;5068467;28;20467;-53
2021/04/24 10:07:44;;;;;;;13.57;6.87;;;19.70;73.80;;;;;;5069484;28;20466;-52
2021/04/24 10:10:13;;;;;;;9.40;6.67;;;19.00;75.20;;;;;;5068951;28;21024;-53
2021/04/24 10:12:54;;;;;;;9.60;6.83;;;18.70;75.00;;;;;;5069205;28;20463;-53
2021/04/24 10:15:34;;;;;;;11.03;6.63;;;19.50;76.30;;;;;;5061939;28;20482;-53
2021/04/24 10:18:01;;;;;;;9.70;6.33;;;20.50;68.70;;;;;;5068716;28;20469;-54
2021/04/24 10:20:28;;;;;;;10.60;6.60;;;21.40;70.90;;;;;;5071402;28;20490;-54
2021/04/24 10:22:56;;;;;;;11.43;7.00;;;21.40;68.40;;;;;;5066499;28;20479;-53
2021/04/24 10:25:22;;;;;;;11.43;7.20;;;21.00;71.70;;;;;;5064463;28;20458;-53
2021/04/24 10:27:52;;;;;;;11.87;6.37;;;20.30;71.80;;;;;;5060868;28;20982;-53
2021/04/24 10:30:19;;;;;;;11.53;6.97;;;20.40;71.20;;;;;;5066281;28;20501;-53
2021/04/24 10:32:49;;;;;;;8.90;6.30;;;19.50;71.60;;;;;;5068078;28;21034;-53
2021/04/24 10:35:16;;;;;;;9.20;6.63;;;18.70;73.10;;;;;;5062779;28;20474;-53
2021/04/24 10:37:48;;;;;;;10.50;7.13;;;19.50;72.50;;;;;;5063909;28;20463;-54
2021/04/24 10:40:14;;;;;;;10.13;7.40;;;20.50;74.00;;;;;;5060790;28;20479;-54
2021/04/24 10:42:44;;;;;;;10.77;7.53;;;20.90;71.70;;;;;;5064463;28;20454;-54
2021/04/24 10:45:12;;;;;;;15.33;7.17;;;20.50;71.10;;;;;;5060977;28;20460;-54
2021/04/24 10:47:52;;;;;;;12.03;7.03;;;21.10;68.50;;;;;;5062506;28;20460;-54
2021/04/24 10:50:21;;;;;;;10.90;6.47;;;20.90;67.10;;;;;;5063164;28;21019;-54
2021/04/24 10:52:51;;;;;;;9.90;6.70;;;20.60;67.40;;;;;;5065520;28;20455;-54
2021/04/24 10:55:27;;;;;;;9.40;6.80;;;19.90;70.50;;;;;;5063774;28;20955;-53
2021/04/24 10:57:55;;;;;;;9.93;6.30;;;18.50;74.20;;;;;;5056565;28;20483;-52
2021/04/24 11:00:24;;;;;;;16.20;7.90;;;18.60;80.20;;;;;;5062558;28;20480;-53
2021/04/24 11:02:53;;;;;;;12.80;7.77;;;18.60;70.50;;;;;;5066302;28;20452;-53
2021/04/24 11:05:26;;;;;;;10.37;7.33;;;18.70;71.70;;;;;;5057394;28;20537;-53
2021/04/24 11:08:32;;;;;;;16.90;7.40;;;18.00;73.70;;;;;;5064662;28;20454;-52
2021/04/24 11:11:02;;;;;;;15.17;6.53;;;17.70;75.70;;;;;;5055206;28;20491;-53
2021/04/24 11:13:32;;;;;;;10.43;7.10;;;18.20;73.50;;;;;;5063450;28;20972;-53
2021/04/24 11:16:01;;;;;;;11.30;6.20;;;18.10;71.40;;;;;;5068298;28;20463;-53
2021/04/24 11:18:28;;;;;;;11.23;7.17;;;17.90;72.50;;;;;;5064117;28;20470;-52
2021/04/24 11:20:57;;;;;;;11.63;6.40;;;17.80;74.70;;;;;;5056218;28;20490;-53
2021/04/24 11:23:45;;;;;;;10.47;7.33;;;17.40;76.40;;;;;;5066555;28;20483;-53
2021/04/24 11:26:16;;;;;;;11.23;6.90;;;17.60;74.90;;;;;;5066196;28;20467;-52
2021/04/24 11:29:02;;;;;;;13.30;6.17;;;17.50;73.80;;;;;;5063739;28;20516;-53
2021/04/24 11:31:56;;;;;;;10.17;6.17;;;17.80;76.20;;;;;;5075151;22;20997;-52
2021/04/24 11:34:46;;;;;;;10.63;6.50;;;18.40;67.80;;;;;;5038230;28;20447;-51
2021/04/24 11:37:33;;;;;;;11.03;5.87;;;18.90;69.80;;;;;;5050894;28;20460;-50
2021/04/24 11:40:27;;;;;;;9.53;6.30;;;19.00;72.20;;;;;;5048699;28;20479;-51
2021/04/24 11:43:28;;;;;;;9.70;6.30;;;19.00;72.00;;;;;;5050648;28;20681;-51
2021/04/24 11:46:01;;;;;;;10.73;6.73;;;18.80;72.30;;;;;;5034084;28;20547;-52
2021/04/24 11:49:08;;;;;;;12.10;7.20;;;18.40;73.60;;;;;;5044451;28;20451;-51
2021/04/24 11:51:41;;;;;;;10.83;6.13;;;18.60;70.00;;;;;;5043609;28;20592;-51
2021/04/24 11:54:10;;;;;;;9.03;6.53;;;18.70;68.90;;;;;;5046224;28;20945;-51
2021/04/24 11:56:37;;;;;;;10.63;6.40;;;18.70;67.90;;;;;;5044158;28;20984;-52
2021/04/24 11:59:05;;;;;;;10.20;6.60;;;18.90;72.50;;;;;;5043305;28;20845;-53
2021/04/24 12:01:32;;;;;;;9.17;5.57;;;18.60;71.10;;;;;;5043434;28;20822;-53
2021/04/24 12:04:01;;;;;;;9.60;5.60;;;18.20;71.10;;;;;;5045835;28;20522;-54
2021/04/24 12:06:36;;;;;;;10.47;6.97;;;18.50;67.70;;;;;;5041973;28;20468;-53
2021/04/24 12:09:09;;;;;;;9.00;5.60;;;18.90;71.30;;;;;;5044949;28;20455;-51
2021/04/24 12:11:35;;;;;;;7.67;5.57;;;18.90;70.30;;;;;;5044529;28;20546;-51
2021/04/24 12:14:02;;;;;;;10.23;6.43;;;18.60;72.40;;;;;;5046299;28;20459;-52
2021/04/24 12:16:44;;;;;;;8.23;5.50;;;18.80;66.60;;;;;;5043143;28;20460;-53
2021/04/24 12:19:33;;;;;;;8.87;6.23;;;19.20;67.50;;;;;;5044261;28;20558;-52
2021/04/24 12:22:05;;;;;;;7.83;5.37;;;18.80;67.30;;;;;;5044030;28;20467;-51
2021/04/24 12:24:31;;;;;;;8.70;4.87;;;18.80;65.70;;;;;;5043924;28;20479;-53
2021/04/24 12:26:58;;;;;;;10.90;6.50;;;19.10;71.80;;;;;;5041001;28;20460;-52
2021/04/24 12:29:44;;;;;;;8.50;5.50;;;18.90;66.10;;;;;;5043123;28;20464;-53
2021/04/24 12:32:13;;;;;;;8.50;5.13;;;19.20;64.40;;;;;;5045002;28;20889;-52
2021/04/24 12:34:41;;;;;;;8.17;4.60;;;19.30;62.80;;;;;;5043955;28;20880;-53
2021/04/24 12:37:09;;;;;;;11.13;5.23;;;19.30;67.80;;;;;;5042894;28;20585;-53
2021/04/24 12:39:37;;;;;;;7.77;5.10;;;19.10;68.00;;;;;;5044190;28;20459;-53
2021/04/24 12:42:04;;;;;;;7.17;5.10;;;19.20;66.30;;;;;;5043897;28;20474;-53
2021/04/24 12:44:32;;;;;;;8.00;5.20;;;18.80;67.80;;;;;;5043267;28;20480;-53
2021/04/24 12:46:59;;;;;;;7.50;4.97;;;18.90;63.50;;;;;;5044332;28;20447;-53
2021/04/24 12:49:26;;;;;;;8.00;5.90;;;19.20;64.30;;;;;;5044356;28;20472;-52
2021/04/24 12:52:04;;;;;;;10.73;5.17;;;19.30;65.10;;;;;;5044127;28;20455;-52
2021/04/24 12:54:31;;;;;;;6.90;5.07;;;19.40;64.00;;;;;;5049989;28;20463;-53